Time;durP1;ratioP1;P1;durP2;ratioP2;P2;SDS_P1;SDS_P2;PMS_P1;PMS_P2;Temp;Humidity;BMP_temperature;BMP_pressure;BME280_temperature;BME280_humidity;BME280_pressure;Samples;Min_cycle;Max_cycle;Signal;HPM_P1;HPM_P2
2021/07/25 00:00:40;;;;;;;;;;;16.40;99.90;;;;;;5071810;28;19971;-72
2021/07/25 00:03:08;;;;;;;;;;;16.30;99.90;;;;;;5071546;28;19924;-73
2021/07/25 00:05:35;;;;;;;;;;;16.20;99.90;;;;;;5055219;28;19936;-73
2021/07/25 00:08:13;;;;;;;;;;;16.10;99.90;;;;;;5072721;28;20027;-73
2021/07/25 00:10:49;;;;;;;;;;;16.10;99.90;;;;;;5071973;28;20374;-74
2021/07/25 00:13:16;;;;;;;;;;;16.10;99.90;;;;;;5070698;28;19924;-74
2021/07/25 00:15:48;;;;;;;;;;;16.10;99.90;;;;;;5072790;28;20014;-73
2021/07/25 00:18:20;;;;;;;;;;;16.20;99.90;;;;;;5071469;28;19924;-73
2021/07/25 00:20:47;;;;;;;;;;;16.20;99.90;;;;;;5071705;28;19924;-74
2021/07/25 00:23:20;;;;;;;;;;;16.30;99.90;;;;;;5071278;28;20413;-74
2021/07/25 00:25:53;;;;;;;;;;;16.30;99.90;;;;;;5071273;28;19955;-74
2021/07/25 00:28:32;;;;;;;;;;;16.30;99.90;;;;;;5071458;28;20462;-73
2021/07/25 00:31:03;;;;;;;;;;;16.40;99.90;;;;;;5071497;28;19968;-74
2021/07/25 00:33:36;;;;;;;;;;;16.30;99.90;;;;;;5071308;28;19965;-74
2021/07/25 00:36:07;;;;;;;;;;;16.30;99.90;;;;;;5071550;28;19960;-74
2021/07/25 00:38:34;;;;;;;;;;;16.20;99.90;;;;;;5071147;28;19983;-74
2021/07/25 00:41:09;;;;;;;;;;;16.30;99.90;;;;;;5072244;28;19963;-74
2021/07/25 00:43:42;;;;;;;;;;;16.30;99.90;;;;;;5070839;28;20306;-74
2021/07/25 00:46:10;;;;;;;;;;;16.20;99.90;;;;;;5072435;28;19954;-73
2021/07/25 00:48:43;;;;;;;;;;;16.30;99.90;;;;;;5055131;28;20391;-73
2021/07/25 00:51:15;;;;;;;;;;;16.20;99.90;;;;;;5071934;28;20201;-74
2021/07/25 00:53:43;;;;;;;;;;;16.20;99.90;;;;;;5071847;28;19934;-73
2021/07/25 00:56:16;;;;;;;;;;;16.10;99.90;;;;;;5071151;28;20295;-73
2021/07/25 00:58:42;;;;;;;;;;;16.00;99.90;;;;;;5071962;28;19964;-74
2021/07/25 01:01:10;;;;;;;;;;;16.10;99.90;;;;;;5069694;28;19928;-73
2021/07/25 01:03:49;;;;;;;;;;;16.00;99.90;;;;;;5070255;28;20486;-73
2021/07/25 01:06:21;;;;;;;;;;;16.00;99.90;;;;;;5070195;28;19989;-73
2021/07/25 01:09:01;;;;;;;;;;;16.00;99.90;;;;;;5071619;28;20446;-74
2021/07/25 01:11:32;;;;;;;;;;;16.00;99.90;;;;;;5071336;28;19971;-74
2021/07/25 01:14:00;;;;;;;;;;;16.00;99.90;;;;;;5070350;28;20031;-74
2021/07/25 01:16:27;;;;;;;;;;;16.00;99.90;;;;;;5070545;28;19975;-74
2021/07/25 01:18:59;;;;;;;;;;;16.00;99.90;;;;;;5057197;28;20079;-74
2021/07/25 01:21:30;;;;;;;;;;;16.00;99.90;;;;;;5071979;28;20011;-74
2021/07/25 01:24:02;;;;;;;;;;;16.00;99.90;;;;;;5056338;28;19925;-74
2021/07/25 01:26:35;;;;;;;;;;;16.00;99.90;;;;;;5071941;28;20015;-74
2021/07/25 01:29:03;;;;;;;;;;;16.00;99.90;;;;;;5070132;28;19968;-74
2021/07/25 01:31:37;;;;;;;;;;;16.10;99.90;;;;;;5069841;28;19963;-74
2021/07/25 01:34:05;;;;;;;;;;;16.10;99.90;;;;;;5070110;28;19968;-74
2021/07/25 01:36:38;;;;;;;;;;;16.10;99.90;;;;;;5071256;28;19924;-74
2021/07/25 01:39:04;;;;;;;;;;;16.10;99.90;;;;;;5073069;28;19963;-74
2021/07/25 01:41:43;;;;;;;;;;;16.10;99.90;;;;;;5074073;28;19956;-74
2021/07/25 01:44:10;;;;;;;;;;;16.10;99.90;;;;;;5057688;28;19964;-74
2021/07/25 01:46:39;;;;;;;;;;;16.10;99.90;;;;;;5057558;28;19990;-74
2021/07/25 01:49:05;;;;;;;;;;;16.20;99.90;;;;;;5074196;28;19978;-74
2021/07/25 01:51:32;;;;;;;;;;;16.20;99.90;;;;;;5074031;28;19970;-74
2021/07/25 01:54:05;;;;;;;;;;;16.20;99.90;;;;;;5074341;28;19928;-74
2021/07/25 01:56:36;;;;;;;;;;;16.30;99.90;;;;;;5073941;28;20030;-74
2021/07/25 01:59:08;;;;;;;;;;;16.30;99.90;;;;;;5074087;28;20019;-74
2021/07/25 02:01:35;;;;;;;;;;;16.30;99.90;;;;;;5073878;28;20397;-74
2021/07/25 02:04:01;;;;;;;;;;;16.40;99.90;;;;;;5074014;28;19924;-74
2021/07/25 02:06:36;;;;;;;;;;;16.30;99.90;;;;;;5073806;28;20031;-74
2021/07/25 02:09:10;;;;;;;;;;;16.40;99.90;;;;;;5075329;28;20381;-74
2021/07/25 02:11:37;;;;;;;;;;;16.40;99.90;;;;;;5074887;28;20367;-74
2021/07/25 02:14:11;;;;;;;;;;;16.40;99.90;;;;;;5075021;28;20379;-74
2021/07/25 02:16:43;;;;;;;;;;;16.30;99.90;;;;;;5073986;28;20010;-74
2021/07/25 02:19:15;;;;;;;;;;;16.20;99.90;;;;;;5073704;28;20050;-74
2021/07/25 02:21:41;;;;;;;;;;;16.10;99.90;;;;;;5073116;28;19934;-74
2021/07/25 02:24:13;;;;;;;;;;;16.10;99.90;;;;;;5073666;28;19925;-74
2021/07/25 02:26:44;;;;;;;;;;;16.10;99.90;;;;;;5073718;28;20035;-74
2021/07/25 02:29:16;;;;;;;;;;;16.10;99.90;;;;;;5073748;28;19971;-74
2021/07/25 02:31:43;;;;;;;;;;;16.10;99.90;;;;;;5073328;28;20000;-74
2021/07/25 02:34:10;;;;;;;;;;;16.10;99.90;;;;;;5056564;28;19924;-74
2021/07/25 02:36:37;;;;;;;;;;;16.10;99.90;;;;;;5074883;28;19924;-74
2021/07/25 02:39:08;;;;;;;;;;;16.10;99.90;;;;;;5073561;28;19924;-74
2021/07/25 02:41:40;;;;;;;;;;;16.10;99.90;;;;;;5073178;28;19928;-74
2021/07/25 02:44:12;;;;;;;;;;;16.10;99.90;;;;;;5073124;28;20110;-74
2021/07/25 02:46:43;;;;;;;;;;;16.20;99.90;;;;;;5072883;28;19925;-74
2021/07/25 02:49:10;;;;;;;;;;;16.20;99.90;;;;;;5056557;28;19928;-74
2021/07/25 02:51:42;;;;;;;;;;;16.20;99.90;;;;;;5073267;28;19928;-74
2021/07/25 02:54:14;;;;;;;;;;;16.20;99.90;;;;;;5073009;28;19938;-74
2021/07/25 02:56:41;;;;;;;;;;;16.30;99.90;;;;;;5072991;28;20386;-74
2021/07/25 02:59:13;;;;;;;;;;;16.30;99.90;;;;;;5072414;28;20411;-74
2021/07/25 03:01:40;;;;;;;;;;;16.30;99.90;;;;;;5073980;28;20010;-74
2021/07/25 03:04:08;;;;;;;;;;;16.30;99.90;;;;;;5072917;28;19956;-74
2021/07/25 03:06:39;;;;;;;;;;;16.20;99.90;;;;;;5089680;28;20137;-74
2021/07/25 03:09:06;;;;;;;;;;;16.10;99.90;;;;;;5072833;28;19963;-74
2021/07/25 03:11:39;;;;;;;;;;;16.10;99.90;;;;;;5072286;28;20361;-74
2021/07/25 03:14:06;;;;;;;;;;;16.10;99.90;;;;;;5072446;28;20342;-74
2021/07/25 03:16:33;;;;;;;;;;;16.10;99.90;;;;;;5072668;28;20027;-74
2021/07/25 03:19:00;;;;;;;;;;;16.10;99.90;;;;;;5072548;28;19959;-74
2021/07/25 03:21:32;;;;;;;;;;;16.10;99.90;;;;;;5072172;28;20248;-74
2021/07/25 03:24:04;;;;;;;;;;;16.10;99.90;;;;;;5072281;28;20031;-74
2021/07/25 03:26:31;;;;;;;;;;;16.10;99.90;;;;;;5072374;28;20470;-74
2021/07/25 03:28:57;;;;;;;;;;;16.00;99.90;;;;;;5072212;28;19930;-74
2021/07/25 03:31:24;;;;;;;;;;;16.10;99.90;;;;;;5072157;28;19929;-74
2021/07/25 03:33:51;;;;;;;;;;;16.10;99.90;;;;;;5072317;28;20041;-74
2021/07/25 03:36:24;;;;;;;;;;;16.20;99.90;;;;;;5072325;28;19931;-74
2021/07/25 03:38:51;;;;;;;;;;;16.20;99.90;;;;;;5072073;28;19986;-74
2021/07/25 03:41:22;;;;;;;;;;;16.30;99.90;;;;;;5071958;28;19925;-74
2021/07/25 03:43:49;;;;;;;;;;;16.30;99.90;;;;;;5071944;28;20027;-74
2021/07/25 03:46:21;;;;;;;;;;;16.30;99.90;;;;;;5072080;28;19930;-74
2021/07/25 03:48:48;;;;;;;;;;;16.30;99.90;;;;;;5071785;28;20391;-74
2021/07/25 03:51:14;;;;;;;;;;;16.30;99.90;;;;;;5071436;28;20019;-74
2021/07/25 03:53:41;;;;;;;;;;;16.30;99.90;;;;;;5071729;28;19956;-74
2021/07/25 03:56:13;;;;;;;;;;;16.30;99.90;;;;;;5071880;28;20003;-74
2021/07/25 03:58:39;;;;;;;;;;;16.20;99.90;;;;;;5072940;28;19924;-74
2021/07/25 04:01:06;;;;;;;;;;;16.10;99.90;;;;;;5070878;28;19972;-74
2021/07/25 04:03:38;;;;;;;;;;;16.10;99.90;;;;;;5071703;28;20335;-74
2021/07/25 04:06:04;;;;;;;;;;;16.10;99.90;;;;;;5072027;28;19924;-74
2021/07/25 04:08:31;;;;;;;;;;;16.20;99.90;;;;;;5071406;28;19931;-74
2021/07/25 04:10:58;;;;;;;;;;;16.20;99.90;;;;;;5071567;28;19955;-74
2021/07/25 04:13:24;;;;;;;;;;;16.10;99.90;;;;;;5071331;28;19925;-74
2021/07/25 04:15:56;;;;;;;;;;;16.10;99.90;;;;;;5071490;28;19931;-74
2021/07/25 04:18:23;;;;;;;;;;;16.10;99.90;;;;;;5054573;28;20023;-74
2021/07/25 04:20:49;;;;;;;;;;;16.10;99.90;;;;;;5054815;28;19968;-74
2021/07/25 04:23:16;;;;;;;;;;;16.10;99.90;;;;;;5070865;28;20027;-74
2021/07/25 04:25:43;;;;;;;;;;;16.10;99.90;;;;;;5071231;28;20601;-75
2021/07/25 04:28:15;;;;;;;;;;;16.10;99.90;;;;;;5055628;28;20051;-74
2021/07/25 04:30:47;;;;;;;;;;;16.20;99.90;;;;;;5055347;28;20024;-74
2021/07/25 04:33:20;;;;;;;;;;;16.20;99.90;;;;;;5073364;28;20354;-74
2021/07/25 04:35:47;;;;;;;;;;;16.20;99.90;;;;;;5056789;28;20015;-73
2021/07/25 04:38:20;;;;;;;;;;;16.20;99.90;;;;;;5057149;28;20409;-74
2021/07/25 04:41:01;;;;;;;;;;;16.20;99.90;;;;;;5072680;28;19967;-74
2021/07/25 04:43:30;;;;;;;;;;;16.20;99.90;;;;;;5071062;28;19975;-74
2021/07/25 04:46:07;;;;;;;;;;;16.20;99.90;;;;;;5071126;28;19964;-74
2021/07/25 04:48:50;;;;;;;;;;;16.20;99.90;;;;;;5071028;28;19968;-74
2021/07/25 04:51:18;;;;;;;;;;;16.20;99.90;;;;;;5070640;28;20355;-74
2021/07/25 04:53:51;;;;;;;;;;;16.20;99.90;;;;;;5070792;28;20370;-74
2021/07/25 04:56:22;;;;;;;;;;;16.20;99.90;;;;;;5070932;28;20019;-74
2021/07/25 04:59:01;;;;;;;;;;;16.20;99.90;;;;;;5072300;28;20019;-75
2021/07/25 05:01:30;;;;;;;;;;;16.20;99.90;;;;;;5070795;28;19925;-74
2021/07/25 05:04:04;;;;;;;;;;;16.20;99.90;;;;;;5070865;28;20030;-74
2021/07/25 05:06:37;;;;;;;;;;;16.20;99.90;;;;;;5070817;28;19925;-74
2021/07/25 05:09:10;;;;;;;;;;;16.20;99.90;;;;;;5070962;28;19936;-75
2021/07/25 05:11:44;;;;;;;;;;;16.30;99.90;;;;;;5070537;28;20236;-74
2021/07/25 05:14:21;;;;;;;;;;;16.40;99.90;;;;;;5074077;28;20037;-74
2021/07/25 05:16:56;;;;;;;;;;;16.40;99.90;;;;;;5074836;28;19935;-74
2021/07/25 05:19:40;;;;;;;;;;;16.40;99.90;;;;;;5074868;28;20429;-74
2021/07/25 05:22:27;;;;;;;;;;;16.40;99.90;;;;;;5074598;28;19930;-74
2021/07/25 05:24:54;;;;;;;;;;;16.40;99.90;;;;;;5074532;28;19924;-75
2021/07/25 05:27:22;;;;;;;;;;;16.40;99.90;;;;;;5074612;28;19947;-74
2021/07/25 05:29:54;;;;;;;;;;;16.40;99.90;;;;;;5076172;28;20023;-74
2021/07/25 05:32:25;;;;;;;;;;;16.40;99.90;;;;;;5058321;28;19924;-74
2021/07/25 05:34:57;;;;;;;;;;;16.30;99.90;;;;;;5075793;28;19924;-74
2021/07/25 05:37:24;;;;;;;;;;;16.30;99.90;;;;;;5057706;28;20346;-74
2021/07/25 05:39:50;;;;;;;;;;;16.40;99.90;;;;;;5074450;28;20007;-74
2021/07/25 05:42:22;;;;;;;;;;;16.40;99.90;;;;;;5074196;28;19967;-74
2021/07/25 05:44:54;;;;;;;;;;;16.40;99.90;;;;;;5074491;28;19988;-74
2021/07/25 05:47:25;;;;;;;;;;;16.40;99.90;;;;;;5074455;28;20364;-74
2021/07/25 05:49:57;;;;;;;;;;;16.40;99.90;;;;;;5074199;28;20438;-74
2021/07/25 05:52:24;;;;;;;;;;;16.40;99.90;;;;;;5075418;28;20386;-74
2021/07/25 05:54:50;;;;;;;;;;;16.50;99.90;;;;;;5057730;28;20304;-74
2021/07/25 05:57:18;;;;;;;;;;;16.50;99.90;;;;;;5057682;28;19964;-75
2021/07/25 05:59:50;;;;;;;;;;;16.50;99.90;;;;;;5074181;28;19924;-74
2021/07/25 06:02:16;;;;;;;;;;;16.60;99.90;;;;;;5057121;28;19924;-75
2021/07/25 06:04:48;;;;;;;;;;;16.60;99.90;;;;;;5073860;28;20433;-74
2021/07/25 06:07:14;;;;;;;;;;;16.60;99.90;;;;;;5074006;28;19959;-74
2021/07/25 06:09:46;;;;;;;;;;;16.60;99.90;;;;;;5074018;28;20015;-74
2021/07/25 06:12:19;;;;;;;;;;;16.70;99.90;;;;;;5074462;28;19932;-75
2021/07/25 06:14:45;;;;;;;;;;;16.70;99.90;;;;;;5073165;28;20070;-74
2021/07/25 06:17:12;;;;;;;;;;;16.80;99.90;;;;;;5074566;28;19928;-75
2021/07/25 06:19:39;;;;;;;;;;;16.80;99.90;;;;;;5076969;28;20007;-75
2021/07/25 06:22:07;;;;;;;;;;;16.90;99.90;;;;;;5091940;28;19925;-74
2021/07/25 06:24:38;;;;;;;;;;;16.90;99.90;;;;;;5088643;28;19924;-74
2021/07/25 06:27:06;;;;;;;;;;;17.00;99.90;;;;;;5091292;28;19928;-74
2021/07/25 06:29:33;;;;;;;;;;;17.00;99.90;;;;;;5084857;28;19928;-74
2021/07/25 06:32:00;;;;;;;;;;;17.00;99.90;;;;;;5087409;28;19924;-75
2021/07/25 06:34:27;;;;;;;;;;;17.00;99.90;;;;;;5086867;28;19932;-75
2021/07/25 06:36:59;;;;;;;;;;;17.10;99.90;;;;;;5087174;28;19924;-75
2021/07/25 06:39:26;;;;;;;;;;;17.10;99.90;;;;;;5102184;28;20007;-75
2021/07/25 06:41:58;;;;;;;;;;;17.10;99.90;;;;;;5086634;28;19924;-75
2021/07/25 06:44:30;;;;;;;;;;;17.00;99.90;;;;;;5081883;28;19931;-74
2021/07/25 06:46:56;;;;;;;;;;;17.00;99.90;;;;;;5080412;28;20617;-74
2021/07/25 06:49:28;;;;;;;;;;;17.00;99.90;;;;;;5078883;28;19928;-75
2021/07/25 06:51:55;;;;;;;;;;;16.90;99.90;;;;;;5087072;28;19973;-75
2021/07/25 06:54:27;;;;;;;;;;;17.00;99.90;;;;;;5086074;28;19928;-74
2021/07/25 06:56:59;;;;;;;;;;;17.00;99.90;;;;;;5084664;28;19963;-74
2021/07/25 06:59:26;;;;;;;;;;;17.00;99.90;;;;;;5083626;28;19967;-75
2021/07/25 07:01:54;;;;;;;;;;;17.00;99.90;;;;;;5080885;28;19939;-74
2021/07/25 07:04:21;;;;;;;;;;;17.10;99.90;;;;;;5081501;28;19967;-74
2021/07/25 07:06:48;;;;;;;;;;;17.10;99.90;;;;;;5081488;28;20462;-74
2021/07/25 07:09:15;;;;;;;;;;;17.10;99.90;;;;;;5082448;28;19928;-74
2021/07/25 07:11:46;;;;;;;;;;;17.20;99.90;;;;;;5079370;28;19930;-74
2021/07/25 07:14:13;;;;;;;;;;;17.30;99.90;;;;;;5083556;28;19971;-74
2021/07/25 07:16:46;;;;;;;;;;;17.30;99.90;;;;;;5080806;28;19963;-75
2021/07/25 07:19:14;;;;;;;;;;;17.30;99.90;;;;;;5079687;28;20402;-75
2021/07/25 07:21:41;;;;;;;;;;;17.30;99.90;;;;;;5083723;28;19993;-75
2021/07/25 07:24:07;;;;;;;;;;;17.30;99.90;;;;;;5064455;28;19966;-75
2021/07/25 07:26:39;;;;;;;;;;;17.40;99.90;;;;;;5061507;28;19963;-74
2021/07/25 07:29:06;;;;;;;;;;;17.40;99.90;;;;;;5085174;28;20339;-75
2021/07/25 07:31:38;;;;;;;;;;;17.50;99.90;;;;;;5080619;28;19924;-74
2021/07/25 07:34:10;;;;;;;;;;;17.60;99.90;;;;;;5067524;28;19936;-75
2021/07/25 07:36:42;;;;;;;;;;;17.60;99.90;;;;;;5060385;28;19934;-75
2021/07/25 07:39:08;;;;;;;;;;;17.60;99.90;;;;;;5078935;28;20027;-74
2021/07/25 07:41:40;;;;;;;;;;;17.60;99.90;;;;;;5079524;28;19935;-75
2021/07/25 07:44:11;;;;;;;;;;;17.70;99.90;;;;;;5076328;28;20368;-75
2021/07/25 07:46:38;;;;;;;;;;;17.80;99.90;;;;;;5082093;28;19978;-75
2021/07/25 07:49:05;;;;;;;;;;;17.80;99.90;;;;;;5089506;28;19928;-74
2021/07/25 07:51:36;;;;;;;;;;;17.90;99.90;;;;;;5080226;28;19924;-75
2021/07/25 07:54:03;;;;;;;;;;;17.90;99.90;;;;;;5096396;28;19931;-74
2021/07/25 07:56:35;;;;;;;;;;;18.00;99.90;;;;;;5094145;28;19936;-74
2021/07/25 07:59:02;;;;;;;;;;;18.00;99.90;;;;;;5076334;28;20038;-74
2021/07/25 08:01:30;;;;;;;;;;;18.10;99.90;;;;;;5068949;28;20294;-75
2021/07/25 08:03:56;;;;;;;;;;;18.20;99.90;;;;;;5084080;28;19952;-75
2021/07/25 08:06:28;;;;;;;;;;;18.20;99.90;;;;;;5091521;28;19924;-75
2021/07/25 08:09:00;;;;;;;;;;;18.30;99.90;;;;;;5074305;28;19924;-75
2021/07/25 08:11:31;;;;;;;;;;;18.30;99.90;;;;;;5089670;28;19928;-75
2021/07/25 08:13:58;;;;;;;;;;;18.30;99.90;;;;;;5101085;28;19978;-75
2021/07/25 08:16:25;;;;;;;;;;;18.30;99.90;;;;;;5104755;28;19925;-75
2021/07/25 08:18:56;;;;;;;;;;;18.30;99.90;;;;;;5095015;28;19935;-75
2021/07/25 08:21:23;;;;;;;;;;;18.30;99.90;;;;;;5095477;28;19941;-75
2021/07/25 08:23:55;;;;;;;;;;;18.40;99.90;;;;;;5105497;28;19977;-75
2021/07/25 08:26:28;;;;;;;;;;;18.40;99.90;;;;;;5101312;28;20464;-75
2021/07/25 08:29:01;;;;;;;;;;;18.60;99.90;;;;;;5079612;28;19924;-75
2021/07/25 08:31:27;;;;;;;;;;;18.70;99.90;;;;;;5097219;28;20010;-74
2021/07/25 08:33:59;;;;;;;;;;;18.70;99.90;;;;;;5074526;28;19969;-75
2021/07/25 08:36:26;;;;;;;;;;;18.80;99.90;;;;;;5107620;28;19923;-74
2021/07/25 08:38:58;;;;;;;;;;;18.80;99.90;;;;;;5110350;28;19924;-76
2021/07/25 08:41:35;;;;;;;;;;;18.90;99.90;;;;;;5109943;28;19924;-75
2021/07/25 08:44:22;;;;;;;;;;;18.90;99.90;;;;;;5095858;28;20298;-74
2021/07/25 08:46:54;;;;;;;;;;;18.90;99.90;;;;;;5062380;28;20019;-75
2021/07/25 08:49:34;;;;;;;;;;;19.00;99.90;;;;;;5093619;28;19990;-74
2021/07/25 08:52:10;;;;;;;;;;;19.10;99.90;;;;;;5106414;28;20014;-74
2021/07/25 08:54:39;;;;;;;;;;;19.20;99.90;;;;;;5086898;28;19951;-74
2021/07/25 08:57:15;;;;;;;;;;;19.20;99.90;;;;;;5069532;28;20337;-74
2021/07/25 08:59:49;;;;;;;;;;;19.30;99.90;;;;;;5073300;28;20407;-74
2021/07/25 09:02:22;;;;;;;;;;;19.30;99.90;;;;;;5089436;28;19975;-75
2021/07/25 09:04:54;;;;;;;;;;;19.30;99.90;;;;;;5073058;28;20018;-74
2021/07/25 09:07:27;;;;;;;;;;;19.30;99.90;;;;;;5072579;28;19977;-75
2021/07/25 09:10:01;;;;;;;;;;;19.30;99.90;;;;;;5072760;28;19963;-74
2021/07/25 09:12:30;;;;;;;;;;;19.30;99.90;;;;;;5087070;28;20553;-75
2021/07/25 09:14:58;;;;;;;;;;;19.40;99.90;;;;;;5089690;28;19963;-75
2021/07/25 09:17:25;;;;;;;;;;;19.50;99.90;;;;;;5070206;28;20381;-75
2021/07/25 09:20:08;;;;;;;;;;;19.60;99.90;;;;;;5101281;28;19972;-74
2021/07/25 09:22:39;;;;;;;;;;;19.60;99.90;;;;;;5088599;28;19963;-74
2021/07/25 09:25:06;;;;;;;;;;;19.60;99.90;;;;;;5089445;28;19924;-74
2021/07/25 09:27:33;;;;;;;;;;;19.60;99.90;;;;;;5089200;28;19956;-75
2021/07/25 09:30:15;;;;;;;;;;;19.70;99.90;;;;;;5072399;28;19994;-74
2021/07/25 09:32:48;;;;;;;;;;;19.70;99.90;;;;;;5089298;28;19924;-75
2021/07/25 09:35:29;;;;;;;;;;;19.70;99.90;;;;;;5088956;28;20386;-75
2021/07/25 09:38:01;;;;;;;;;;;19.80;99.90;;;;;;5093467;28;20845;-74
2021/07/25 09:40:29;;;;;;;;;;;19.80;99.90;;;;;;5080893;28;20026;-75
2021/07/25 09:43:20;;;;;;;;;;;19.80;99.90;;;;;;5080698;28;19963;-75
2021/07/25 09:45:47;;;;;;;;;;;19.90;99.90;;;;;;5066552;28;19964;-74
2021/07/25 09:48:14;;;;;;;;;;;19.90;99.90;;;;;;5072717;28;20018;-74
2021/07/25 09:50:41;;;;;;;;;;;20.00;99.90;;;;;;5107529;28;19931;-74
2021/07/25 09:53:08;;;;;;;;;;;20.00;99.90;;;;;;5109593;28;19946;-74
2021/07/25 09:55:40;;;;;;;;;;;20.00;99.90;;;;;;5096567;28;19931;-74
2021/07/25 09:58:07;;;;;;;;;;;20.00;99.90;;;;;;5089154;28;19992;-74
2021/07/25 10:00:43;;;;;;;;;;;20.00;99.90;;;;;;5092454;28;19946;-74
2021/07/25 10:03:21;;;;;;;;;;;20.10;99.90;;;;;;5091749;28;19924;-75
2021/07/25 10:05:53;;;;;;;;;;;20.20;99.90;;;;;;5089303;28;19937;-75
2021/07/25 10:08:21;;;;;;;;;;;20.20;99.90;;;;;;5088331;28;19924;-74
2021/07/25 10:10:51;;;;;;;;;;;20.30;99.90;;;;;;5090195;28;20011;-74
2021/07/25 10:13:26;;;;;;;;;;;20.30;99.90;;;;;;5090112;28;19968;-74
2021/07/25 10:15:53;;;;;;;;;;;20.30;99.90;;;;;;5086770;28;19971;-75
2021/07/25 10:18:26;;;;;;;;;;;20.40;99.90;;;;;;5090331;28;19924;-75
2021/07/25 10:20:54;;;;;;;;;;;20.40;99.90;;;;;;5094915;28;19958;-75
2021/07/25 10:23:40;;;;;;;;;;;20.40;99.90;;;;;;5085115;28;19981;-74
2021/07/25 10:26:13;;;;;;;;;;;20.40;99.90;;;;;;5091851;28;19932;-75
2021/07/25 10:28:40;;;;;;;;;;;20.40;99.90;;;;;;5092214;28;19984;-74
2021/07/25 10:31:12;;;;;;;;;;;20.50;99.90;;;;;;5074702;28;19932;-75
2021/07/25 10:33:40;;;;;;;;;;;20.60;99.90;;;;;;5095141;28;19977;-75
2021/07/25 10:36:07;;;;;;;;;;;20.60;99.90;;;;;;5094509;28;19928;-75
2021/07/25 10:38:40;;;;;;;;;;;20.60;99.90;;;;;;5089193;28;20335;-75
2021/07/25 10:41:07;;;;;;;;;;;20.70;99.90;;;;;;5095818;28;20367;-75
2021/07/25 10:43:34;;;;;;;;;;;20.70;99.90;;;;;;5113254;28;20382;-75
2021/07/25 10:46:22;;;;;;;;;;;20.70;99.90;;;;;;5097622;28;19928;-75
2021/07/25 10:49:19;;;;;;;;;;;20.60;99.90;;;;;;5074705;28;20011;-75
2021/07/25 10:51:59;;;;;;;;;;;20.60;99.90;;;;;;5089456;28;19931;-74
2021/07/25 10:54:32;;;;;;;;;;;20.60;99.90;;;;;;5085848;28;20294;-76
2021/07/25 10:57:10;;;;;;;;;;;20.50;99.90;;;;;;5094382;28;20401;-77
2021/07/25 10:59:50;;;;;;;;;;;20.60;99.90;;;;;;5093068;28;20107;-75
2021/07/25 11:02:24;;;;;;;;;;;20.50;99.90;;;;;;5060484;28;19928;-75
2021/07/25 11:04:51;;;;;;;;;;;20.50;99.90;;;;;;5092653;28;19959;-74
2021/07/25 11:07:22;;;;;;;;;;;20.60;99.90;;;;;;5065731;28;19928;-74
2021/07/25 11:09:54;;;;;;;;;;;20.60;99.90;;;;;;5077558;28;20007;-75
2021/07/25 11:12:46;;;;;;;;;;;20.60;99.90;;;;;;5079499;28;19951;-75
2021/07/25 11:15:32;;;;;;;;;;;20.60;99.90;;;;;;5090673;28;19924;-75
2021/07/25 11:18:22;;;;;;;;;;;20.50;99.90;;;;;;5089516;28;20572;-74
2021/07/25 11:20:54;;;;;;;;;;;20.50;99.90;;;;;;5072994;28;19963;-74
2021/07/25 11:23:33;;;;;;;;;;;20.40;99.90;;;;;;5096534;28;19928;-75
2021/07/25 11:26:24;;;;;;;;;;;20.40;99.90;;;;;;5099959;28;19931;-76
2021/07/25 11:28:50;;;;;;;;;;;20.40;99.90;;;;;;5103631;28;19924;-77
2021/07/25 11:31:17;;;;;;;;;;;20.50;99.90;;;;;;5090143;28;19931;-75
2021/07/25 11:33:47;;;;;;;;;;;20.60;99.90;;;;;;5100907;28;19954;-75
2021/07/25 11:36:20;;;;;;;;;;;20.70;99.90;;;;;;5093507;28;20453;-75
2021/07/25 11:38:54;;;;;;;;;;;20.70;99.90;;;;;;5090400;28;20829;-75
2021/07/25 11:41:23;;;;;;;;;;;20.80;99.90;;;;;;5099905;28;19932;-74
2021/07/25 11:43:50;;;;;;;;;;;20.80;99.90;;;;;;5105425;28;20372;-75
2021/07/25 11:46:36;;;;;;;;;;;20.90;99.90;;;;;;5097261;28;19963;-75
2021/07/25 11:49:18;;;;;;;;;;;21.00;99.90;;;;;;5085680;28;20328;-75
2021/07/25 11:51:45;;;;;;;;;;;20.90;99.90;;;;;;5097426;28;19928;-74
2021/07/25 11:54:12;;;;;;;;;;;20.90;99.90;;;;;;5102891;28;19931;-75
2021/07/25 11:56:56;;;;;;;;;;;21.00;99.90;;;;;;5092077;28;20038;-75
2021/07/25 11:59:23;;;;;;;;;;;21.00;99.90;;;;;;5100757;28;19928;-75
2021/07/25 12:01:50;;;;;;;;;;;21.20;99.90;;;;;;5094679;28;19930;-75
2021/07/25 12:04:23;;;;;;;;;;;21.20;99.90;;;;;;5104831;28;19972;-74
2021/07/25 12:07:00;;;;;;;;;;;21.20;99.90;;;;;;5103540;28;19946;-74
2021/07/25 12:09:27;;;;;;;;;;;21.10;99.90;;;;;;5095302;28;19924;-75
2021/07/25 12:12:03;;;;;;;;;;;21.10;99.90;;;;;;5095872;28;19927;-75
2021/07/25 12:14:32;;;;;;;;;;;21.10;99.90;;;;;;5075700;28;19995;-75
2021/07/25 12:16:59;;;;;;;;;;;21.10;99.90;;;;;;5079664;28;19924;-75
2021/07/25 12:19:35;;;;;;;;;;;21.10;99.90;;;;;;5063871;28;19970;-75
2021/07/25 12:22:17;;;;;;;;;;;21.10;99.90;;;;;;5082703;28;20019;-74
2021/07/25 12:24:45;;;;;;;;;;;21.00;99.90;;;;;;5083341;28;20034;-75
2021/07/25 12:27:38;;;;;;;;;;;21.00;99.90;;;;;;5082003;28;20353;-75
2021/07/25 12:30:12;;;;;;;;;;;21.10;99.90;;;;;;5060862;28;19924;-74
2021/07/25 12:32:39;;;;;;;;;;;21.10;99.90;;;;;;5081435;28;19967;-75
2021/07/25 12:35:14;;;;;;;;;;;21.10;99.90;;;;;;5065099;28;19962;-75
2021/07/25 12:37:52;;;;;;;;;;;21.20;99.90;;;;;;5079788;28;20031;-75
2021/07/25 12:40:20;;;;;;;;;;;21.20;99.90;;;;;;5092118;28;19959;-75
2021/07/25 12:43:01;;;;;;;;;;;21.30;99.90;;;;;;5090780;28;19923;-74
2021/07/25 12:45:29;;;;;;;;;;;21.40;99.90;;;;;;5091482;28;20039;-75
2021/07/25 12:48:08;;;;;;;;;;;21.40;99.90;;;;;;5060822;28;20356;-75
2021/07/25 12:53:39;;;;;;;;;;;21.40;99.90;;;;;;5081659;28;19924;-74
2021/07/25 12:56:21;;;;;;;;;;;21.60;99.90;;;;;;5085585;28;19924;-75
2021/07/25 12:58:49;;;;;;;;;;;21.80;99.90;;;;;;5077272;28;19932;-74
2021/07/25 13:04:06;;;;;;;;;;;22.30;99.90;;;;;;5100146;28;19928;-74
2021/07/25 13:06:40;;;;;;;;;;;22.40;99.90;;;;;;5089218;28;19934;-75
2021/07/25 13:09:13;;;;;;;;;;;22.50;99.90;;;;;;5100534;28;20010;-74
2021/07/25 13:11:45;;;;;;;;;;;22.70;99.90;;;;;;5078325;28;20687;-74
2021/07/25 13:14:13;;;;;;;;;;;22.80;99.90;;;;;;5078852;28;20033;-75
2021/07/25 13:16:48;;;;;;;;;;;22.90;99.90;;;;;;5109560;28;19923;-74
2021/07/25 13:19:16;;;;;;;;;;;22.90;99.90;;;;;;5093832;28;19924;-74
2021/07/25 13:21:48;;;;;;;;;;;23.00;99.90;;;;;;5092014;28;19924;-74
2021/07/25 13:24:20;;;;;;;;;;;23.20;99.90;;;;;;5091066;28;19932;-74
2021/07/25 13:26:46;;;;;;;;;;;23.20;99.90;;;;;;5090841;28;19924;-74
2021/07/25 13:29:18;;;;;;;;;;;23.20;99.90;;;;;;5090937;28;20428;-75
2021/07/25 13:31:50;;;;;;;;;;;23.20;99.90;;;;;;5090917;28;19931;-74
2021/07/25 13:34:19;;;;;;;;;;;23.20;99.90;;;;;;5092882;28;19924;-74
2021/07/25 13:36:51;;;;;;;;;;;23.00;99.90;;;;;;5095237;28;20394;-75
2021/07/25 13:39:27;;;;;;;;;;;23.10;99.90;;;;;;5079333;28;20552;-74
2021/07/25 13:41:53;;;;;;;;;;;23.10;99.90;;;;;;5095093;28;19928;-74
2021/07/25 13:44:20;;;;;;;;;;;22.90;99.90;;;;;;5109731;28;19977;-74
2021/07/25 13:49:24;;;;;;;;;;;22.60;99.90;;;;;;5095053;28;19928;-74
2021/07/25 13:51:51;;;;;;;;;;;22.60;99.90;;;;;;5104087;28;19924;-74
2021/07/25 13:54:20;;;;;;;;;;;22.60;99.90;;;;;;5111328;28;19935;-75
2021/07/25 13:56:47;;;;;;;;;;;22.50;99.90;;;;;;5096523;28;20420;-74
2021/07/25 13:59:19;;;;;;;;;;;22.50;99.90;;;;;;5094728;28;19969;-75
2021/07/25 14:01:50;;;;;;;;;;;22.40;99.90;;;;;;5094377;28;19924;-75
2021/07/25 14:04:17;;;;;;;;;;;22.40;99.90;;;;;;5095664;28;19924;-74
2021/07/25 14:06:49;;;;;;;;;;;22.40;99.90;;;;;;5096496;28;19998;-74
2021/07/25 14:09:16;;;;;;;;;;;22.30;99.90;;;;;;5088815;28;19924;-75
2021/07/25 14:11:48;;;;;;;;;;;22.30;99.90;;;;;;5103315;28;20410;-75
2021/07/25 14:14:18;;;;;;;;;;;22.20;99.90;;;;;;5099620;28;19957;-75
2021/07/25 14:16:50;;;;;;;;;;;22.10;99.90;;;;;;5093837;28;20331;-74
2021/07/25 14:19:17;;;;;;;;;;;22.10;99.90;;;;;;5113521;28;20405;-75
2021/07/25 14:21:44;;;;;;;;;;;22.10;99.90;;;;;;5089176;28;20011;-75
2021/07/25 14:24:16;;;;;;;;;;;22.00;99.90;;;;;;5085670;28;19924;-74
2021/07/25 14:26:48;;;;;;;;;;;22.00;99.90;;;;;;5111562;28;20386;-74
2021/07/25 14:29:15;;;;;;;;;;;21.90;99.90;;;;;;5100785;28;19927;-75
2021/07/25 14:31:46;;;;;;;;;;;21.90;99.90;;;;;;5096764;28;19951;-74
2021/07/25 14:34:18;;;;;;;;;;;21.80;99.90;;;;;;5085945;28;19932;-74
2021/07/25 14:36:50;;;;;;;;;;;21.70;99.90;;;;;;5102668;28;19924;-76
2021/07/25 14:39:17;;;;;;;;;;;21.60;99.90;;;;;;5093135;28;19930;-74
2021/07/25 14:41:44;;;;;;;;;;;21.60;99.90;;;;;;5100438;28;19970;-75
2021/07/25 14:44:11;;;;;;;;;;;21.40;99.90;;;;;;5103900;28;19924;-74
2021/07/25 14:46:38;;;;;;;;;;;21.20;99.90;;;;;;5102935;28;19923;-74